Time;durP1;ratioP1;P1;durP2;ratioP2;P2;SDS_P1;SDS_P2;PMS_P1;PMS_P2;Temp;Humidity;BMP_temperature;BMP_pressure;BME280_temperature;BME280_humidity;BME280_pressure;Samples;Min_cycle;Max_cycle;Signal;HPM_P1;HPM_P2
2023/04/08 00:01:15;;;;;;;11.13;8.93;;;;;;;;;;5040111;28;20199;-78
2023/04/08 00:03:40;;;;;;;12.00;8.43;;;;;;;;;;5047539;28;20174;-78
2023/04/08 00:06:07;;;;;;;13.40;9.57;;;;;;;;;;5080488;28;20175;-78
2023/04/08 00:08:32;;;;;;;10.27;8.57;;;;;;;;;;5048773;28;20178;-78
2023/04/08 00:10:57;;;;;;;9.63;8.10;;;;;;;;;;5041047;28;20199;-78
2023/04/08 00:13:22;;;;;;;10.73;7.70;;;;;;;;;;5047180;28;20185;-78
2023/04/08 00:15:48;;;;;;;9.30;7.80;;;;;;;;;;5048215;28;20181;-78
2023/04/08 00:18:14;;;;;;;10.33;8.30;;;;;;;;;;5047418;28;20290;-78
2023/04/08 00:20:39;;;;;;;10.23;7.53;;;;;;;;;;5054970;28;20178;-78
2023/04/08 00:23:05;;;;;;;10.57;9.10;;;;;;;;;;5073150;28;20178;-78
2023/04/08 00:25:30;;;;;;;10.60;8.07;;;;;;;;;;5051246;28;20185;-78
2023/04/08 00:27:55;;;;;;;11.43;9.97;;;;;;;;;;5067032;28;20186;-78
2023/04/08 00:30:20;;;;;;;10.70;8.50;;;;;;;;;;5051269;28;20173;-78
2023/04/08 00:32:46;;;;;;;10.07;8.60;;;;;;;;;;5049716;28;20461;-78
2023/04/08 00:35:11;;;;;;;11.97;9.73;;;;;;;;;;5077057;28;20180;-78
2023/04/08 00:37:37;;;;;;;11.70;9.13;;;;;;;;;;5051246;28;20202;-78
2023/04/08 00:40:03;;;;;;;12.17;9.57;;;;;;;;;;5051359;28;20173;-78
2023/04/08 00:42:29;;;;;;;11.97;9.07;;;;;;;;;;5045279;28;20198;-78
2023/04/08 00:44:55;;;;;;;13.13;10.73;;;;;;;;;;5046092;28;20215;-78
2023/04/08 00:47:21;;;;;;;14.30;9.50;;;;;;;;;;5078962;28;20180;-78
2023/04/08 00:49:46;;;;;;;11.90;8.13;;;;;;;;;;5044957;28;20253;-78
2023/04/08 00:52:12;;;;;;;15.23;9.90;;;;;;;;;;5049570;28;20213;-78
2023/04/08 00:54:37;;;;;;;9.27;7.27;;;;;;;;;;5044840;28;20185;-78
2023/04/08 00:57:04;;;;;;;11.20;9.33;;;;;;;;;;5079212;28;20166;-78
2023/04/08 00:59:29;;;;;;;13.97;10.43;;;;;;;;;;5064499;28;20201;-78
2023/04/08 01:02:15;;;;;;;13.37;9.07;;;;;;;;;;5062787;28;20175;-78
2023/04/08 01:05:03;;;;;;;12.87;8.10;;;;;;;;;;5051005;28;20184;-78
2023/04/08 01:07:30;;;;;;;14.23;9.33;;;;;;;;;;5041442;28;20202;-78
2023/04/08 01:10:00;;;;;;;9.30;6.43;;;;;;;;;;5050679;28;20175;-78
2023/04/08 01:12:31;;;;;;;8.93;7.37;;;;;;;;;;5043896;28;20193;-78
2023/04/08 01:15:04;;;;;;;9.07;6.73;;;;;;;;;;5083847;28;20166;-78
2023/04/08 01:17:30;;;;;;;11.90;8.27;;;;;;;;;;5049654;28;20191;-78
2023/04/08 01:19:58;;;;;;;15.13;7.47;;;;;;;;;;5059269;28;20185;-78
2023/04/08 01:22:36;;;;;;;7.73;5.93;;;;;;;;;;5048046;28;20206;-78
2023/04/08 01:25:06;;;;;;;10.43;7.80;;;;;;;;;;5043786;28;20177;-78
2023/04/08 01:27:33;;;;;;;11.50;7.93;;;;;;;;;;5053140;28;20174;-78
2023/04/08 01:30:00;;;;;;;11.83;7.07;;;;;;;;;;5079113;28;20182;-78
2023/04/08 01:32:26;;;;;;;11.87;8.43;;;;;;;;;;5051439;28;20206;-78
2023/04/08 01:34:51;;;;;;;11.00;7.90;;;;;;;;;;5043931;28;20214;-78
2023/04/08 01:37:17;;;;;;;4.87;3.40;;;;;;;;;;5047073;28;20252;-78
2023/04/08 01:39:42;;;;;;;10.27;7.20;;;;;;;;;;5051064;28;20179;-78
2023/04/08 01:42:08;;;;;;;9.90;7.83;;;;;;;;;;5043862;28;20186;-78
2023/04/08 01:44:34;;;;;;;9.60;7.33;;;;;;;;;;5081234;28;20174;-78
2023/04/08 01:47:00;;;;;;;9.80;6.87;;;;;;;;;;5050831;28;20216;-78
2023/04/08 01:49:26;;;;;;;7.53;5.97;;;;;;;;;;5065854;28;20217;-78
2023/04/08 01:51:52;;;;;;;10.43;7.07;;;;;;;;;;5050802;28;20170;-78
2023/04/08 01:54:17;;;;;;;7.53;5.80;;;;;;;;;;5067708;28;20192;-78
2023/04/08 01:56:43;;;;;;;8.40;6.23;;;;;;;;;;5078336;28;20170;-78
2023/04/08 01:59:10;;;;;;;7.47;6.67;;;;;;;;;;5048461;28;20198;-78
2023/04/08 02:01:35;;;;;;;8.73;6.83;;;;;;;;;;5050358;28;20174;-78
2023/04/08 02:04:02;;;;;;;6.40;5.33;;;;;;;;;;5049490;28;20242;-78
2023/04/08 02:06:28;;;;;;;8.37;5.90;;;;;;;;;;5082874;28;20174;-78
2023/04/08 02:08:53;;;;;;;7.23;5.20;;;;;;;;;;5065386;28;20193;-78
2023/04/08 02:11:18;;;;;;;7.60;6.17;;;;;;;;;;5051611;28;20178;-78
2023/04/08 02:13:44;;;;;;;9.73;6.50;;;;;;;;;;5078074;28;20182;-78
2023/04/08 02:16:15;;;;;;;7.73;6.53;;;;;;;;;;5045386;28;20201;-78
2023/04/08 02:18:42;;;;;;;10.87;6.83;;;;;;;;;;5062752;28;20201;-78
2023/04/08 02:21:13;;;;;;;7.30;6.40;;;;;;;;;;5058780;28;20285;-78
2023/04/08 02:23:39;;;;;;;7.33;5.77;;;;;;;;;;5047255;28;20175;-78
2023/04/08 02:26:06;;;;;;;7.77;6.60;;;;;;;;;;5050513;28;20177;-78
2023/04/08 02:28:33;;;;;;;6.70;5.63;;;;;;;;;;5047130;28;20200;-78
2023/04/08 02:31:02;;;;;;;7.57;6.07;;;;;;;;;;5047389;28;20191;-78
2023/04/08 02:33:27;;;;;;;7.83;6.17;;;;;;;;;;5044214;28;20280;-78
2023/04/08 02:35:53;;;;;;;8.47;6.20;;;;;;;;;;5065458;28;20220;-78
2023/04/08 02:38:19;;;;;;;8.83;7.03;;;;;;;;;;5048433;28;20301;-78
2023/04/08 02:40:44;;;;;;;8.43;6.50;;;;;;;;;;5049655;28;20201;-78
2023/04/08 02:43:10;;;;;;;8.40;6.97;;;;;;;;;;5049974;28;20235;-78
2023/04/08 02:45:40;;;;;;;7.97;6.50;;;;;;;;;;5064878;28;20170;-78
2023/04/08 02:48:05;;;;;;;8.80;6.23;;;;;;;;;;5045861;28;20188;-78
2023/04/08 02:50:30;;;;;;;6.80;5.77;;;;;;;;;;5078103;28;20224;-78
2023/04/08 02:52:56;;;;;;;9.10;6.13;;;;;;;;;;5047454;28;20178;-78
2023/04/08 02:55:21;;;;;;;8.13;6.00;;;;;;;;;;5050010;28;20184;-78
2023/04/08 02:57:46;;;;;;;9.30;6.73;;;;;;;;;;5048578;28;20229;-78
2023/04/08 03:00:12;;;;;;;10.60;6.17;;;;;;;;;;5048362;28;20220;-78
2023/04/08 03:02:37;;;;;;;9.13;6.73;;;;;;;;;;5058953;28;20177;-78
2023/04/08 03:05:04;;;;;;;10.10;6.87;;;;;;;;;;5059802;28;20267;-78
2023/04/08 03:07:29;;;;;;;7.30;6.20;;;;;;;;;;5044790;28;20173;-78
2023/04/08 03:09:54;;;;;;;9.33;6.87;;;;;;;;;;5062559;28;20180;-78
2023/04/08 03:12:20;;;;;;;8.53;6.07;;;;;;;;;;5042335;28;20274;-78
2023/04/08 03:14:45;;;;;;;9.83;7.13;;;;;;;;;;5074989;28;20224;-78
2023/04/08 03:17:11;;;;;;;8.33;6.40;;;;;;;;;;5041783;28;20269;-78
2023/04/08 03:19:36;;;;;;;8.90;6.20;;;;;;;;;;5059204;28;20224;-78
2023/04/08 03:22:01;;;;;;;8.57;6.27;;;;;;;;;;5047426;28;20175;-78
2023/04/08 03:24:26;;;;;;;10.37;6.93;;;;;;;;;;5046297;28;20179;-78
2023/04/08 03:26:51;;;;;;;9.63;6.70;;;;;;;;;;5077294;28;20166;-78
2023/04/08 03:29:17;;;;;;;8.73;6.33;;;;;;;;;;5039075;28;20190;-78
2023/04/08 03:31:42;;;;;;;9.63;6.87;;;;;;;;;;5046898;28;20182;-78
2023/04/08 03:34:07;;;;;;;7.87;5.40;;;;;;;;;;5059763;28;20189;-78
2023/04/08 03:36:32;;;;;;;8.10;6.17;;;;;;;;;;5053827;28;20184;-78
2023/04/08 03:38:58;;;;;;;7.90;5.90;;;;;;;;;;5048908;28;20200;-78
2023/04/08 03:41:23;;;;;;;8.90;6.57;;;;;;;;;;5046550;28;20177;-78
2023/04/08 03:43:48;;;;;;;9.17;6.97;;;;;;;;;;5048405;28;20195;-78
2023/04/08 03:46:13;;;;;;;11.97;8.20;;;;;;;;;;5048731;28;20191;-78
2023/04/08 03:48:39;;;;;;;9.00;6.70;;;;;;;;;;5064641;28;20177;-78
2023/04/08 03:51:04;;;;;;;11.37;7.57;;;;;;;;;;5062618;28;20240;-78
2023/04/08 03:53:29;;;;;;;7.73;6.30;;;;;;;;;;5050372;28;20170;-78
2023/04/08 03:55:55;;;;;;;9.13;6.30;;;;;;;;;;5081216;28;20178;-78
2023/04/08 03:58:20;;;;;;;9.63;6.60;;;;;;;;;;5048432;28;20262;-78
2023/04/08 04:00:46;;;;;;;9.33;6.80;;;;;;;;;;5048441;28;20167;-78
2023/04/08 04:03:11;;;;;;;9.53;6.97;;;;;;;;;;5055487;28;20294;-78
2023/04/08 04:05:37;;;;;;;7.43;6.00;;;;;;;;;;5051365;28;20269;-78
2023/04/08 04:08:02;;;;;;;7.13;5.67;;;;;;;;;;5051468;28;20256;-78
2023/04/08 04:10:28;;;;;;;10.03;6.93;;;;;;;;;;5051270;28;20206;-78
2023/04/08 04:12:53;;;;;;;8.83;7.30;;;;;;;;;;5049676;28;20215;-78
2023/04/08 04:15:18;;;;;;;9.23;6.90;;;;;;;;;;5053154;28;20245;-78
2023/04/08 04:17:43;;;;;;;10.77;8.20;;;;;;;;;;5079146;28;20243;-78
2023/04/08 04:20:09;;;;;;;17.57;10.43;;;;;;;;;;5048263;28;20166;-78
2023/04/08 04:22:34;;;;;;;8.80;7.07;;;;;;;;;;5051810;28;20215;-78
2023/04/08 04:24:59;;;;;;;7.93;5.93;;;;;;;;;;5046296;28;20186;-78
2023/04/08 04:27:24;;;;;;;9.67;6.73;;;;;;;;;;5049974;28;20198;-78
2023/04/08 04:29:50;;;;;;;8.73;6.67;;;;;;;;;;5052038;28;20193;-78
2023/04/08 04:32:15;;;;;;;10.17;6.77;;;;;;;;;;5049421;28;20180;-78
2023/04/08 04:34:40;;;;;;;6.83;5.50;;;;;;;;;;5051803;28;20307;-78
2023/04/08 04:37:06;;;;;;;7.60;6.07;;;;;;;;;;5047898;28;20177;-78
2023/04/08 04:39:31;;;;;;;7.03;6.10;;;;;;;;;;5064455;28;20199;-78
2023/04/08 04:41:56;;;;;;;6.50;5.40;;;;;;;;;;5056036;28;20180;-78
2023/04/08 04:44:21;;;;;;;7.73;5.60;;;;;;;;;;5076339;28;20180;-78
2023/04/08 04:46:47;;;;;;;8.27;6.57;;;;;;;;;;5044930;28;20197;-78
2023/04/08 04:49:12;;;;;;;9.77;7.87;;;;;;;;;;5064095;28;20183;-78
2023/04/08 04:51:37;;;;;;;9.37;7.00;;;;;;;;;;5055215;28;20232;-78
2023/04/08 04:54:02;;;;;;;11.00;9.07;;;;;;;;;;5048516;28;20183;-78
2023/04/08 04:56:27;;;;;;;8.03;6.63;;;;;;;;;;5055027;28;20174;-78
2023/04/08 04:58:53;;;;;;;7.43;6.47;;;;;;;;;;5066407;28;20198;-78
2023/04/08 05:01:18;;;;;;;7.80;6.43;;;;;;;;;;5047707;28;20180;-78
2023/04/08 05:03:43;;;;;;;8.57;6.40;;;;;;;;;;5081836;28;20184;-79
2023/04/08 05:06:08;;;;;;;8.37;6.37;;;;;;;;;;5044806;28;20175;-78
2023/04/08 05:08:34;;;;;;;9.87;6.10;;;;;;;;;;5051652;28;20169;-78
2023/04/08 05:11:01;;;;;;;8.83;6.90;;;;;;;;;;5046199;28;20195;-78
2023/04/08 05:13:26;;;;;;;9.87;7.70;;;;;;;;;;5049412;28;20205;-78
2023/04/08 05:15:52;;;;;;;9.13;7.10;;;;;;;;;;5051695;28;20268;-78
2023/04/08 05:18:17;;;;;;;10.07;7.73;;;;;;;;;;5051230;28;20190;-78
2023/04/08 05:20:42;;;;;;;9.67;7.10;;;;;;;;;;5045253;28;20173;-78
2023/04/08 05:23:07;;;;;;;10.87;7.97;;;;;;;;;;5063570;28;20178;-78
2023/04/08 05:25:33;;;;;;;11.30;8.23;;;;;;;;;;5061892;28;20211;-78
2023/04/08 05:27:58;;;;;;;10.53;8.73;;;;;;;;;;5080979;28;20182;-78
2023/04/08 05:30:23;;;;;;;10.83;8.30;;;;;;;;;;5051366;28;20211;-78
2023/04/08 05:32:48;;;;;;;11.10;8.73;;;;;;;;;;5047826;28;20175;-79
2023/04/08 05:35:14;;;;;;;10.83;8.23;;;;;;;;;;5050164;28;20174;-78
2023/04/08 05:37:39;;;;;;;14.53;8.20;;;;;;;;;;5052145;28;20198;-78
2023/04/08 05:40:05;;;;;;;10.70;8.23;;;;;;;;;;5049295;28;20269;-79
2023/04/08 05:42:31;;;;;;;11.53;8.47;;;;;;;;;;5047451;28;20219;-78
2023/04/08 05:44:56;;;;;;;11.73;7.00;;;;;;;;;;5053380;28;20180;-78
2023/04/08 05:47:21;;;;;;;10.13;6.73;;;;;;;;;;5050427;28;20178;-78
2023/04/08 05:49:47;;;;;;;9.77;6.37;;;;;;;;;;5082245;28;20221;-78
2023/04/08 05:52:15;;;;;;;9.67;6.83;;;;;;;;;;5048605;28;20185;-78
2023/04/08 05:54:44;;;;;;;10.73;7.50;;;;;;;;;;5069339;28;20240;-78
2023/04/08 05:57:09;;;;;;;9.93;8.33;;;;;;;;;;5078377;28;20204;-78
2023/04/08 05:59:35;;;;;;;11.83;8.27;;;;;;;;;;5079888;28;20219;-78
2023/04/08 06:02:00;;;;;;;10.87;8.13;;;;;;;;;;5049827;28;20182;-78
2023/04/08 06:04:25;;;;;;;9.37;7.90;;;;;;;;;;5045434;28;20175;-78
2023/04/08 06:06:50;;;;;;;8.60;6.70;;;;;;;;;;5043144;28;20193;-78
2023/04/08 06:09:16;;;;;;;11.83;8.60;;;;;;;;;;5047508;28;20239;-78
2023/04/08 06:11:41;;;;;;;8.73;5.00;;;;;;;;;;5073661;28;20178;-78
2023/04/08 06:14:06;;;;;;;12.77;9.67;;;;;;;;;;5045797;28;20253;-78
2023/04/08 06:16:31;;;;;;;12.13;10.80;;;;;;;;;;5050134;28;20177;-78
2023/04/08 06:18:56;;;;;;;11.67;8.33;;;;;;;;;;5048475;28;20194;-78
2023/04/08 06:21:22;;;;;;;14.03;9.93;;;;;;;;;;5041914;28;20174;-78
2023/04/08 06:23:47;;;;;;;17.53;11.17;;;;;;;;;;5051769;28;20173;-78
2023/04/08 06:26:12;;;;;;;12.33;9.17;;;;;;;;;;5049210;28;20173;-78
2023/04/08 06:28:38;;;;;;;12.40;9.10;;;;;;;;;;5081233;28;20182;-78
2023/04/08 06:31:03;;;;;;;9.30;7.33;;;;;;;;;;5045559;28;20174;-78
2023/04/08 06:33:28;;;;;;;11.77;8.93;;;;;;;;;;5050512;28;20196;-78
2023/04/08 06:36:03;;;;;;;18.27;10.73;;;;;;;;;;5049180;28;20252;-78
2023/04/08 06:38:28;;;;;;;9.07;6.80;;;;;;;;;;5049478;28;20189;-78
2023/04/08 06:40:54;;;;;;;14.63;9.30;;;;;;;;;;5047039;28;20189;-78
2023/04/08 06:43:19;;;;;;;11.37;8.90;;;;;;;;;;5073881;28;20183;-78
2023/04/08 06:45:44;;;;;;;11.63;8.73;;;;;;;;;;5048776;28;20166;-79
2023/04/08 06:48:10;;;;;;;10.90;8.90;;;;;;;;;;5072075;28;20190;-78
2023/04/08 06:50:36;;;;;;;8.93;5.97;;;;;;;;;;5059994;28;20257;-78
2023/04/08 06:53:01;;;;;;;10.77;7.97;;;;;;;;;;5044514;28;20188;-78
2023/04/08 06:55:26;;;;;;;9.30;6.97;;;;;;;;;;5044539;28;20174;-78
2023/04/08 06:57:54;;;;;;;11.77;9.90;;;;;;;;;;5042624;28;20326;-78
2023/04/08 07:00:20;;;;;;;12.53;8.87;;;;;;;;;;5047890;28;20186;-78
2023/04/08 07:02:45;;;;;;;12.30;8.87;;;;;;;;;;5042117;28;20216;-78
2023/04/08 07:05:10;;;;;;;17.03;11.60;;;;;;;;;;5063859;28;20176;-78
2023/04/08 07:07:36;;;;;;;11.50;8.50;;;;;;;;;;5041117;28;20178;-78
2023/04/08 07:10:01;;;;;;;13.07;9.07;;;;;;;;;;5048033;28;20179;-78
2023/04/08 07:12:26;;;;;;;12.73;9.83;;;;;;;;;;5046591;28;20308;-78
2023/04/08 07:14:52;;;;;;;15.23;10.60;;;;;;;;;;5047596;28;20246;-78
2023/04/08 07:17:17;;;;;;;15.80;10.90;;;;;;;;;;5048452;28;20188;-79
2023/04/08 07:19:42;;;;;;;18.17;11.00;;;;;;;;;;5045873;28;20203;-79
2023/04/08 07:22:08;;;;;;;14.90;9.77;;;;;;;;;;5046424;28;20217;-79
2023/04/08 07:24:33;;;;;;;10.17;7.90;;;;;;;;;;5073411;28;20179;-78
2023/04/08 07:26:58;;;;;;;13.40;9.67;;;;;;;;;;5047923;28;20162;-78
2023/04/08 07:29:24;;;;;;;9.80;7.80;;;;;;;;;;5043225;28;20178;-79
2023/04/08 07:31:50;;;;;;;11.63;8.80;;;;;;;;;;5080631;28;20185;-78
2023/04/08 07:34:15;;;;;;;10.67;8.60;;;;;;;;;;5062693;28;20193;-78
2023/04/08 07:36:41;;;;;;;12.60;7.97;;;;;;;;;;5076341;28;20185;-78
2023/04/08 07:39:06;;;;;;;11.53;8.10;;;;;;;;;;5045887;28;20236;-78
2023/04/08 07:41:31;;;;;;;11.10;8.13;;;;;;;;;;5041717;28;20177;-78
2023/04/08 07:43:56;;;;;;;15.60;9.80;;;;;;;;;;5063750;28;20223;-78
2023/04/08 07:46:22;;;;;;;14.43;10.80;;;;;;;;;;5062207;28;20274;-78
2023/04/08 07:48:47;;;;;;;14.87;10.67;;;;;;;;;;5048876;28;20220;-78
2023/04/08 07:51:13;;;;;;;13.33;10.83;;;;;;;;;;5071681;28;20226;-78
2023/04/08 07:53:39;;;;;;;12.57;8.23;;;;;;;;;;5055808;28;20217;-78
2023/04/08 07:56:09;;;;;;;15.10;10.67;;;;;;;;;;5059625;28;20213;-78
2023/04/08 07:58:35;;;;;;;28.93;17.30;;;;;;;;;;5072175;28;20194;-78
2023/04/08 08:01:00;;;;;;;15.37;11.33;;;;;;;;;;5047805;28;20174;-78
2023/04/08 08:03:26;;;;;;;15.93;11.27;;;;;;;;;;5047838;28;20264;-79
2023/04/08 08:05:51;;;;;;;9.43;6.40;;;;;;;;;;5044996;28;20178;-78
2023/04/08 08:08:16;;;;;;;18.80;13.27;;;;;;;;;;5044119;28;20182;-78
2023/04/08 08:10:41;;;;;;;21.23;14.97;;;;;;;;;;5046688;28;20178;-78
2023/04/08 08:13:07;;;;;;;11.77;8.03;;;;;;;;;;5075678;28;20189;-78
2023/04/08 08:15:32;;;;;;;10.30;8.43;;;;;;;;;;5046072;28;20182;-78
2023/04/08 08:17:58;;;;;;;18.10;12.87;;;;;;;;;;5074235;28;20210;-78
2023/04/08 08:20:24;;;;;;;17.13;11.37;;;;;;;;;;5044317;28;20183;-79
2023/04/08 08:22:49;;;;;;;20.40;13.97;;;;;;;;;;5045903;28;20185;-78
2023/04/08 08:25:15;;;;;;;12.40;6.37;;;;;;;;;;5046272;28;20245;-79
2023/04/08 08:27:41;;;;;;;16.93;12.30;;;;;;;;;;5048750;28;20173;-79
2023/04/08 08:30:06;;;;;;;18.30;12.33;;;;;;;;;;5067890;28;20205;-78
2023/04/08 08:32:32;;;;;;;16.23;13.17;;;;;;;;;;5045716;28;20180;-78
2023/04/08 08:34:57;;;;;;;17.13;10.20;;;;;;;;;;5079691;28;20177;-78
2023/04/08 08:37:22;;;;;;;17.77;12.40;;;;;;;;;;5046915;28;20170;-78
2023/04/08 08:39:48;;;;;;;17.90;12.10;;;;;;;;;;5050500;28;20194;-78
2023/04/08 08:42:20;;;;;;;20.37;14.30;;;;;;;;;;5055578;28;20224;-78
2023/04/08 08:44:45;;;;;;;18.77;11.77;;;;;;;;;;5050908;28;20194;-79
2023/04/08 08:47:10;;;;;;;13.63;11.10;;;;;;;;;;5044841;28;20230;-78
2023/04/08 08:49:36;;;;;;;18.40;13.00;;;;;;;;;;5047228;28;20186;-78
2023/04/08 08:52:01;;;;;;;18.37;13.50;;;;;;;;;;5048472;28;20193;-79
2023/04/08 08:54:26;;;;;;;21.00;14.97;;;;;;;;;;5049315;28;20207;-79
2023/04/08 08:56:52;;;;;;;17.10;12.40;;;;;;;;;;5050767;28;20227;-79
2023/04/08 08:59:17;;;;;;;17.20;11.70;;;;;;;;;;5048284;28;20230;-79
2023/04/08 09:01:42;;;;;;;15.60;12.40;;;;;;;;;;5045664;28;20166;-79
2023/04/08 09:04:15;;;;;;;17.13;12.50;;;;;;;;;;5044172;28;20182;-79
2023/04/08 09:06:41;;;;;;;16.43;11.80;;;;;;;;;;5054205;28;20312;-79
2023/04/08 09:09:27;;;;;;;17.70;14.47;;;;;;;;;;5078711;28;20257;-78
2023/04/08 09:12:03;;;;;;;14.37;12.10;;;;;;;;;;5044355;28;20190;-79
2023/04/08 09:14:29;;;;;;;18.47;12.93;;;;;;;;;;5045179;28;20181;-79
2023/04/08 09:16:54;;;;;;;18.40;12.83;;;;;;;;;;5068033;28;20182;-79
2023/04/08 09:19:19;;;;;;;15.43;11.77;;;;;;;;;;5050968;28;20286;-79
2023/04/08 09:21:46;;;;;;;15.27;13.27;;;;;;;;;;5060832;28;20182;-79
2023/04/08 09:24:26;;;;;;;14.90;12.23;;;;;;;;;;5049064;28;20256;-79
2023/04/08 09:26:51;;;;;;;17.63;12.20;;;;;;;;;;5081400;28;20178;-79
2023/04/08 09:29:16;;;;;;;15.07;12.17;;;;;;;;;;5061762;28;20209;-79
2023/04/08 09:31:42;;;;;;;15.87;14.03;;;;;;;;;;5051617;28;20202;-79
2023/04/08 09:34:15;;;;;;;14.80;12.77;;;;;;;;;;5047313;28;20178;-79
2023/04/08 09:36:41;;;;;;;13.63;11.63;;;;;;;;;;5051410;28;20181;-79
2023/04/08 09:39:09;;;;;;;15.70;11.60;;;;;;;;;;5060641;28;20207;-79
2023/04/08 09:41:34;;;;;;;15.37;12.67;;;;;;;;;;5051191;28;20256;-79
2023/04/08 09:44:01;;;;;;;14.77;11.87;;;;;;;;;;5081308;28;20236;-79
2023/04/08 09:46:33;;;;;;;13.73;11.73;;;;;;;;;;5079384;28;20167;-79
2023/04/08 09:49:08;;;;;;;16.97;13.23;;;;;;;;;;5042702;28;20178;-79
2023/04/08 09:51:52;;;;;;;15.20;11.70;;;;;;;;;;5044149;28;20240;-79
2023/04/08 09:54:20;;;;;;;12.10;7.87;;;;;;;;;;5047821;28;20182;-79
2023/04/08 09:56:59;;;;;;;12.73;10.07;;;;;;;;;;5045637;28;20163;-79
2023/04/08 09:59:26;;;;;;;14.17;11.60;;;;;;;;;;5082134;28;20286;-79
2023/04/08 10:01:52;;;;;;;14.67;12.47;;;;;;;;;;5060643;28;20179;-79
2023/04/08 10:04:19;;;;;;;14.93;12.70;;;;;;;;;;5066229;28;20170;-79
2023/04/08 10:06:50;;;;;;;13.90;10.43;;;;;;;;;;5050509;28;20166;-79
2023/04/08 10:09:15;;;;;;;13.43;10.70;;;;;;;;;;5047193;28;20199;-79
2023/04/08 10:11:41;;;;;;;13.50;12.10;;;;;;;;;;5047673;28;20175;-79
2023/04/08 10:14:08;;;;;;;13.30;11.13;;;;;;;;;;5046936;28;20178;-79
2023/04/08 10:16:33;;;;;;;14.60;13.10;;;;;;;;;;5065973;28;20267;-79
2023/04/08 10:18:58;;;;;;;12.97;10.27;;;;;;;;;;5050453;28;20296;-79
2023/04/08 10:21:33;;;;;;;12.70;10.90;;;;;;;;;;5049046;28;20175;-79
2023/04/08 10:24:00;;;;;;;12.87;11.47;;;;;;;;;;5046954;28;20190;-79
2023/04/08 10:26:32;;;;;;;14.63;13.13;;;;;;;;;;5047026;28;20180;-80
2023/04/08 10:29:17;;;;;;;14.53;11.53;;;;;;;;;;5047133;28;20195;-79
2023/04/08 10:31:43;;;;;;;13.20;11.90;;;;;;;;;;5039431;28;20187;-79
2023/04/08 10:34:25;;;;;;;14.57;12.23;;;;;;;;;;5065901;28;20171;-79
2023/04/08 10:36:54;;;;;;;14.80;12.80;;;;;;;;;;5045386;28;20187;-80
2023/04/08 10:39:20;;;;;;;14.90;11.93;;;;;;;;;;5079872;28;20207;-79
2023/04/08 10:41:46;;;;;;;14.10;12.60;;;;;;;;;;5065551;28;20270;-79
2023/04/08 10:44:16;;;;;;;14.00;12.50;;;;;;;;;;5064542;28;20184;-80
2023/04/08 10:46:42;;;;;;;13.30;10.93;;;;;;;;;;5075253;28;20173;-79
2023/04/08 10:49:07;;;;;;;14.23;12.27;;;;;;;;;;5047508;28;20256;-80
2023/04/08 10:51:33;;;;;;;13.33;11.93;;;;;;;;;;5044878;28;20307;-80
2023/04/08 10:54:06;;;;;;;13.83;12.43;;;;;;;;;;5080344;28;20192;-80
2023/04/08 10:56:32;;;;;;;14.53;13.13;;;;;;;;;;5041394;28;20172;-79
2023/04/08 10:58:58;;;;;;;13.00;11.60;;;;;;;;;;5039904;28;20289;-80
2023/04/08 11:01:23;;;;;;;14.30;12.80;;;;;;;;;;5041070;28;20167;-79
2023/04/08 11:03:48;;;;;;;15.97;12.83;;;;;;;;;;5062741;28;20310;-79
2023/04/08 11:06:14;;;;;;;13.73;12.33;;;;;;;;;;5047578;28;20179;-80
2023/04/08 11:08:40;;;;;;;13.60;12.23;;;;;;;;;;5082022;28;20180;-80
2023/04/08 11:11:11;;;;;;;14.67;13.17;;;;;;;;;;5042703;28;20176;-79
2023/04/08 11:13:40;;;;;;;14.53;12.60;;;;;;;;;;5078178;28;20176;-79
2023/04/08 11:16:07;;;;;;;12.33;11.10;;;;;;;;;;5047090;28;20235;-79
2023/04/08 11:18:41;;;;;;;14.17;12.70;;;;;;;;;;5047024;28;20202;-79
2023/04/08 11:21:16;;;;;;;13.83;12.43;;;;;;;;;;5078604;28;20172;-80
2023/04/08 11:23:41;;;;;;;14.37;12.87;;;;;;;;;;5060887;28;20182;-80
2023/04/08 11:26:06;;;;;;;13.90;12.50;;;;;;;;;;5062988;28;20402;-80
2023/04/08 11:28:34;;;;;;;13.87;12.30;;;;;;;;;;5048040;28;20176;-80
2023/04/08 11:30:59;;;;;;;14.60;13.10;;;;;;;;;;5045331;28;20194;-80
2023/04/08 11:33:26;;;;;;;13.23;11.37;;;;;;;;;;5046910;28;20263;-80
2023/04/08 11:35:51;;;;;;;13.17;11.87;;;;;;;;;;5064669;28;20288;-80
2023/04/08 11:38:21;;;;;;;14.30;12.77;;;;;;;;;;5048068;28;20253;-80
2023/04/08 11:40:57;;;;;;;11.73;10.57;;;;;;;;;;5063478;28;20215;-79
2023/04/08 11:43:22;;;;;;;13.30;11.93;;;;;;;;;;5040717;28;20199;-80
2023/04/08 11:45:48;;;;;;;13.33;12.03;;;;;;;;;;5047736;28;20217;-80
2023/04/08 11:48:14;;;;;;;13.00;11.57;;;;;;;;;;5040049;28;20188;-79
2023/04/08 11:50:40;;;;;;;13.03;11.63;;;;;;;;;;5062037;28;20368;-79
2023/04/08 11:53:15;;;;;;;13.03;11.63;;;;;;;;;;5058311;28;20235;-80
2023/04/08 11:55:40;;;;;;;12.23;10.57;;;;;;;;;;5047600;28;20186;-80
2023/04/08 11:58:06;;;;;;;10.10;9.10;;;;;;;;;;5077008;28;20187;-79
2023/04/08 12:00:31;;;;;;;12.63;11.37;;;;;;;;;;5043685;28;20170;-79
2023/04/08 12:02:57;;;;;;;11.33;10.23;;;;;;;;;;5075034;28;20237;-80
2023/04/08 12:05:22;;;;;;;12.03;10.87;;;;;;;;;;5064521;28;20187;-79
2023/04/08 12:07:47;;;;;;;12.27;10.83;;;;;;;;;;5045064;28;20287;-80
2023/04/08 12:10:12;;;;;;;13.17;11.77;;;;;;;;;;5074792;28;20179;-79
2023/04/08 12:12:38;;;;;;;11.53;10.37;;;;;;;;;;5047806;28;20167;-80
2023/04/08 12:15:03;;;;;;;13.03;11.43;;;;;;;;;;5055638;28;20279;-80
2023/04/08 12:17:29;;;;;;;11.97;10.67;;;;;;;;;;5048475;28;20244;-80
2023/04/08 12:19:55;;;;;;;10.97;9.57;;;;;;;;;;5063342;28;20228;-80
2023/04/08 12:22:20;;;;;;;11.57;9.83;;;;;;;;;;5052304;28;20175;-80
2023/04/08 12:24:45;;;;;;;11.23;10.10;;;;;;;;;;5049818;28;20189;-79
2023/04/08 12:27:11;;;;;;;12.20;9.63;;;;;;;;;;5046834;28;20171;-79
2023/04/08 12:29:36;;;;;;;11.73;10.20;;;;;;;;;;5050565;28;20238;-80
2023/04/08 12:32:03;;;;;;;13.00;9.63;;;;;;;;;;5052210;28;20172;-79
2023/04/08 12:34:28;;;;;;;10.90;9.73;;;;;;;;;;5050796;28;20191;-80
2023/04/08 12:36:54;;;;;;;13.10;10.13;;;;;;;;;;5046634;28;20210;-79
2023/04/08 12:39:20;;;;;;;12.13;10.63;;;;;;;;;;5055853;28;20205;-79
2023/04/08 12:41:45;;;;;;;11.10;9.07;;;;;;;;;;5084308;28;20171;-80
2023/04/08 12:44:10;;;;;;;14.33;10.67;;;;;;;;;;5076053;28;20244;-79
2023/04/08 12:46:36;;;;;;;11.63;9.73;;;;;;;;;;5051936;28;20165;-79
2023/04/08 12:49:02;;;;;;;10.53;8.63;;;;;;;;;;5069353;28;20177;-79
2023/04/08 12:51:28;;;;;;;13.17;9.27;;;;;;;;;;5051384;28;20341;-80
2023/04/08 12:53:53;;;;;;;8.33;7.13;;;;;;;;;;5050160;28;20266;-80
2023/04/08 12:56:18;;;;;;;9.73;8.70;;;;;;;;;;5045906;28;20180;-79
2023/04/08 12:58:44;;;;;;;12.37;11.07;;;;;;;;;;5064737;28;20195;-79
2023/04/08 13:01:09;;;;;;;13.80;11.03;;;;;;;;;;5049614;28;20182;-79
2023/04/08 13:03:35;;;;;;;11.40;10.20;;;;;;;;;;5051434;28;20175;-80
2023/04/08 13:06:00;;;;;;;13.50;9.90;;;;;;;;;;5047031;28;20208;-80
2023/04/08 13:08:25;;;;;;;13.60;11.47;;;;;;;;;;5080170;28;20195;-80
2023/04/08 13:10:51;;;;;;;11.43;9.90;;;;;;;;;;5046221;28;20168;-80
2023/04/08 13:13:16;;;;;;;13.80;11.90;;;;;;;;;;5047667;28;20171;-79
2023/04/08 13:15:42;;;;;;;12.57;11.03;;;;;;;;;;5047243;28;20201;-80
2023/04/08 13:18:07;;;;;;;13.00;10.67;;;;;;;;;;5074540;28;20305;-80
2023/04/08 13:20:33;;;;;;;11.13;8.40;;;;;;;;;;5053369;28;20206;-79
2023/04/08 13:22:59;;;;;;;12.43;10.63;;;;;;;;;;5079595;28;20177;-79
2023/04/08 13:25:25;;;;;;;11.53;9.83;;;;;;;;;;5048011;28;20262;-80
2023/04/08 13:27:50;;;;;;;11.77;10.33;;;;;;;;;;5051480;28;20264;-80
2023/04/08 13:30:15;;;;;;;11.83;10.03;;;;;;;;;;5052277;28;20204;-80
2023/04/08 13:32:40;;;;;;;12.13;10.47;;;;;;;;;;5049940;28;20199;-80
2023/04/08 13:35:06;;;;;;;11.83;9.70;;;;;;;;;;5047115;28;20181;-80
2023/04/08 13:37:31;;;;;;;12.83;11.50;;;;;;;;;;5048522;28;20175;-80
2023/04/08 13:39:56;;;;;;;13.27;10.97;;;;;;;;;;5044994;28;20228;-80
2023/04/08 13:42:22;;;;;;;11.70;10.10;;;;;;;;;;5077336;28;20524;-80
2023/04/08 13:44:47;;;;;;;12.70;9.77;;;;;;;;;;5042740;28;20173;-80
2023/04/08 13:47:12;;;;;;;11.60;10.33;;;;;;;;;;5078700;28;20230;-80
2023/04/08 13:49:38;;;;;;;11.83;10.63;;;;;;;;;;5047583;28;20327;-80
2023/04/08 13:52:03;;;;;;;11.97;10.43;;;;;;;;;;5050669;28;20189;-80
2023/04/08 13:54:28;;;;;;;10.70;8.57;;;;;;;;;;5079163;28;20175;-80
2023/04/08 13:56:53;;;;;;;12.10;9.60;;;;;;;;;;5049228;28;20180;-80
2023/04/08 13:59:19;;;;;;;12.33;11.23;;;;;;;;;;5049626;28;20205;-80
2023/04/08 14:01:44;;;;;;;11.83;10.50;;;;;;;;;;5058432;28;20291;-80
2023/04/08 14:04:09;;;;;;;14.30;12.87;;;;;;;;;;5082604;28;20273;-80
2023/04/08 14:06:35;;;;;;;11.60;10.37;;;;;;;;;;5050700;28;20170;-80
2023/04/08 14:09:00;;;;;;;11.63;10.13;;;;;;;;;;5046639;28;20267;-80
2023/04/08 14:11:26;;;;;;;12.27;11.00;;;;;;;;;;5046521;28;20222;-80
2023/04/08 14:13:51;;;;;;;13.23;11.93;;;;;;;;;;5039994;28;20184;-80
2023/04/08 14:16:16;;;;;;;11.13;9.97;;;;;;;;;;5044526;28;20191;-80
2023/04/08 14:18:41;;;;;;;11.20;9.93;;;;;;;;;;5074369;28;20248;-81
2023/04/08 14:21:07;;;;;;;10.73;9.63;;;;;;;;;;5042489;28;20268;-80
2023/04/08 14:23:32;;;;;;;11.17;9.70;;;;;;;;;;5065949;28;20172;-80